createdAt,value
2022-09-15T00:01:03.797Z,67.74
2022-09-15T00:05:19.844Z,67.43
2022-09-15T00:09:35.959Z,66.76
2022-09-15T00:13:52.574Z,66.80
2022-09-15T00:18:08.756Z,67.33
2022-09-15T00:22:25.599Z,68.30
2022-09-15T00:26:41.601Z,68.77
2022-09-15T00:30:57.702Z,68.88
2022-09-15T00:35:13.880Z,68.71
2022-09-15T00:39:29.827Z,68.40
2022-09-15T00:43:45.718Z,68.51
2022-09-15T00:48:01.897Z,68.22
2022-09-15T00:56:38.692Z,68.55
2022-09-15T01:01:00.844Z,68.30
2022-09-15T01:05:20.471Z,68.91
2022-09-15T01:09:41.595Z,69.81
2022-09-15T01:13:57.598Z,69.72
2022-09-15T01:18:27.475Z,70.05
2022-09-15T01:22:49.246Z,69.37
2022-09-15T01:27:41.967Z,69.66
2022-09-15T01:32:24.361Z,69.88
2022-09-15T01:36:47.295Z,69.50
2022-09-15T01:41:11.946Z,69.77
2022-09-15T01:45:32.732Z,69.13
2022-09-15T01:49:56.989Z,68.84
2022-09-15T01:54:14.922Z,70.06
2022-09-15T01:58:31.066Z,71.83
2022-09-15T02:03:00.685Z,72.33
2022-09-15T02:07:21.948Z,71.60
2022-09-15T02:11:40.898Z,72.43
2022-09-15T02:15:59.362Z,71.52
2022-09-15T02:20:25.724Z,70.99
2022-09-15T02:24:46.822Z,70.06
2022-09-15T02:29:08.455Z,70.19
2022-09-15T02:33:26.300Z,70.39
2022-09-15T02:37:42.380Z,69.83
2022-09-15T02:41:59.820Z,70.70
2022-09-15T02:46:21.375Z,70.48
2022-09-15T02:50:38.380Z,70.99
2022-09-15T02:54:54.423Z,69.79
2022-09-15T02:59:10.343Z,68.67
2022-09-15T03:03:26.332Z,68.54
2022-09-15T03:07:42.342Z,68.57
2022-09-15T03:11:59.014Z,68.97
2022-09-15T03:16:17.375Z,68.72
2022-09-15T03:20:33.320Z,68.54
2022-09-15T03:24:49.345Z,68.77
2022-09-15T03:29:05.319Z,69.57
2022-09-15T03:33:22.693Z,69.46
2022-09-15T03:37:38.645Z,69.60
2022-09-15T03:41:54.565Z,70.67
2022-09-15T03:46:11.837Z,70.21
2022-09-15T03:50:27.828Z,69.36
2022-09-15T03:54:43.906Z,69.98
2022-09-15T03:59:01.851Z,69.44
2022-09-15T04:03:17.735Z,69.43
2022-09-15T04:07:33.713Z,69.66
2022-09-15T04:11:49.616Z,68.97
2022-09-15T04:16:08.505Z,69.04
2022-09-15T04:20:24.408Z,69.06
2022-09-15T04:24:40.358Z,68.58
2022-09-15T04:28:58.674Z,68.81
2022-09-15T04:33:16.537Z,68.67
2022-09-15T04:37:33.532Z,68.34
2022-09-15T04:41:49.427Z,68.34
2022-09-15T04:46:05.506Z,67.65
2022-09-15T04:50:21.429Z,67.39
2022-09-15T04:54:37.498Z,66.44
2022-09-15T04:58:59.549Z,66.58
2022-09-15T05:03:18.530Z,66.91
2022-09-15T05:07:34.507Z,67.13
2022-09-15T05:11:50.503Z,67.03
2022-09-15T05:16:12.224Z,66.99
2022-09-15T05:20:28.262Z,66.61
2022-09-15T05:24:44.163Z,66.18
2022-09-15T05:29:00.388Z,65.45
2022-09-15T05:33:16.478Z,66.00
2022-09-15T05:37:33.297Z,65.34
2022-09-15T05:41:49.443Z,66.49
2022-09-15T05:46:07.676Z,67.64
2022-09-15T05:50:23.684Z,67.23
2022-09-15T05:54:39.893Z,67.33
2022-09-15T05:58:55.837Z,67.41
2022-09-15T06:03:15.767Z,66.87
2022-09-15T06:07:31.954Z,67.83
2022-09-15T06:11:47.864Z,67.76
2022-09-15T06:16:06.651Z,66.95
2022-09-15T06:20:22.626Z,67.13
2022-09-15T06:24:38.550Z,67.17
2022-09-15T06:28:59.382Z,66.89
2022-09-15T06:33:16.018Z,66.27
2022-09-15T06:37:32.378Z,66.15
2022-09-15T06:42:01.800Z,66.26
2022-09-15T06:46:25.968Z,63.74
2022-09-15T06:50:41.938Z,63.21
2022-09-15T06:54:57.838Z,63.39
2022-09-15T06:59:15.687Z,63.73
2022-09-15T07:03:31.890Z,63.84
2022-09-15T07:07:47.865Z,62.36
2022-09-15T07:12:04.512Z,62.61
2022-09-15T07:16:21.796Z,62.20
2022-09-15T07:20:39.442Z,63.80
2022-09-15T07:24:55.494Z,64.65
2022-09-15T07:29:11.420Z,64.50
2022-09-15T07:33:27.551Z,61.53
2022-09-15T07:37:44.773Z,60.77
2022-09-15T07:42:00.751Z,61.71
2022-09-15T07:46:17.404Z,59.23
2022-09-15T07:50:33.358Z,60.06
2022-09-15T07:54:49.307Z,59.75
2022-09-15T07:59:05.182Z,59.36
2022-09-15T08:03:21.162Z,60.21
2022-09-15T08:07:37.048Z,59.32
2022-09-15T08:11:53.080Z,56.72
2022-09-15T08:16:11.253Z,55.81
2022-09-15T08:20:27.190Z,55.25
2022-09-15T08:24:43.283Z,57.48
2022-09-15T08:28:59.602Z,56.03
2022-09-15T08:33:15.557Z,55.69
2022-09-15T08:37:31.778Z,54.50
2022-09-15T08:41:49.868Z,53.66
2022-09-15T08:46:10.387Z,53.08
2022-09-15T08:50:40.625Z,52.61
2022-09-15T08:55:01.262Z,50.71
2022-09-15T08:59:18.375Z,50.95
2022-09-15T09:04:00.479Z,50.72
2022-09-15T09:08:50.394Z,49.31
2022-09-15T09:13:24.474Z,50.20
2022-09-15T09:18:13.170Z,49.68
2022-09-15T09:22:34.136Z,50.30
2022-09-15T09:26:51.819Z,49.08
2022-09-15T09:31:15.360Z,47.33
2022-09-15T09:35:43.303Z,46.13
2022-09-15T09:39:59.175Z,45.47
2022-09-15T09:44:15.565Z,45.79
2022-09-15T09:48:31.683Z,43.99
2022-09-15T09:52:47.651Z,43.51
2022-09-15T09:57:23.209Z,41.91
2022-09-15T10:01:39.854Z,41.50
2022-09-15T10:06:04.163Z,40.22
2022-09-15T10:10:25.941Z,38.72
2022-09-15T10:14:43.137Z,39.40
2022-09-15T10:18:59.669Z,38.26
2022-09-15T10:23:18.982Z,36.78
2022-09-15T10:27:36.297Z,36.67
2022-09-15T10:31:52.231Z,37.00
2022-09-15T10:36:18.860Z,37.45
2022-09-15T10:40:37.633Z,37.78
2022-09-15T10:45:07.457Z,36.50
2022-09-15T10:49:45.491Z,37.69
2022-09-15T10:54:08.558Z,37.12
2022-09-15T10:58:29.289Z,38.34
2022-09-15T11:02:57.954Z,38.69
2022-09-15T11:07:23.961Z,38.91
2022-09-15T11:11:49.069Z,40.34
2022-09-15T11:16:30.203Z,39.52
2022-09-15T11:21:11.352Z,37.42
2022-09-15T11:25:40.657Z,37.93
2022-09-15T11:30:15.701Z,39.61
2022-09-15T11:34:47.746Z,40.06
2022-09-15T11:39:19.489Z,40.23
2022-09-15T11:44:02.265Z,40.79
2022-09-15T11:48:33.726Z,41.43
2022-09-15T11:53:02.865Z,40.14
2022-09-15T11:57:28.427Z,39.06
2022-09-15T12:02:13.499Z,40.67
2022-09-15T12:06:47.500Z,40.24
2022-09-15T12:11:08.102Z,39.40
2022-09-15T12:15:27.575Z,39.80
2022-09-15T12:19:55.765Z,40.16
2022-09-15T12:24:23.705Z,40.08
2022-09-15T12:29:02.854Z,40.69
2022-09-15T12:33:54.929Z,40.53
2022-09-15T12:38:14.322Z,40.14
2022-09-15T12:42:31.795Z,40.39
2022-09-15T12:46:55.741Z,40.29
2022-09-15T12:51:12.445Z,41.16
2022-09-15T12:55:34.546Z,41.08
2022-09-15T13:00:10.578Z,41.89
2022-09-15T13:04:54.196Z,40.83
2022-09-15T13:09:26.755Z,40.86
2022-09-15T13:14:04.424Z,40.07
2022-09-15T13:18:21.896Z,40.57
2022-09-15T13:22:44.170Z,40.73
2022-09-15T13:27:01.652Z,41.39
2022-09-15T13:31:26.797Z,41.82
2022-09-15T13:35:52.552Z,41.64
2022-09-15T13:40:45.711Z,41.85
2022-09-15T13:45:29.507Z,42.12
2022-09-15T13:49:50.026Z,44.03
2022-09-15T13:54:17.207Z,44.29
2022-09-15T14:03:18.648Z,44.79
2022-09-15T14:07:34.725Z,46.17
2022-09-15T14:11:53.019Z,47.91
2022-09-15T14:16:34.155Z,49.65
2022-09-15T14:21:05.203Z,51.50
2022-09-15T14:25:22.043Z,54.00
2022-09-15T14:29:42.896Z,54.13
2022-09-15T14:33:59.348Z,52.86
2022-09-15T14:38:23.388Z,56.63
2022-09-15T14:42:42.211Z,52.86
2022-09-15T14:46:58.338Z,53.74
2022-09-15T14:51:25.402Z,54.93
2022-09-15T14:56:08.829Z,57.28
2022-09-15T15:00:28.884Z,59.34
2022-09-15T15:04:50.628Z,60.40
2022-09-15T15:09:27.836Z,61.71
2022-09-15T15:13:45.741Z,61.88
2022-09-15T15:18:04.842Z,61.55
2022-09-15T15:22:22.167Z,61.45
2022-09-15T15:26:40.660Z,62.78
2022-09-15T15:31:08.102Z,63.29
2022-09-15T15:35:24.894Z,63.50
2022-09-15T15:39:40.799Z,64.15
2022-09-15T15:44:08.304Z,63.29
2022-09-15T15:48:26.004Z,63.04
2022-09-15T15:52:43.763Z,62.46
2022-09-15T15:57:21.601Z,63.55
2022-09-15T16:01:37.597Z,63.29
2022-09-15T16:05:57.806Z,62.92
2022-09-15T16:10:19.529Z,60.99
2022-09-15T16:14:36.003Z,61.20
2022-09-15T16:18:52.549Z,60.51
2022-09-15T16:23:12.810Z,59.42
2022-09-15T16:27:30.386Z,59.68
2022-09-15T16:31:46.473Z,59.80
2022-09-15T16:36:08.805Z,59.80
2022-09-15T16:40:24.844Z,60.84
2022-09-15T16:44:40.884Z,61.67
2022-09-15T16:48:57.451Z,62.07
2022-09-15T16:53:15.225Z,60.61
2022-09-15T16:57:31.227Z,61.98
2022-09-15T17:01:47.283Z,61.83
2022-09-15T17:06:03.749Z,62.25
2022-09-15T17:10:19.862Z,62.93
2022-09-15T17:14:37.089Z,62.96
2022-09-15T17:18:53.436Z,62.67
2022-09-15T17:23:26.641Z,63.86
2022-09-15T17:27:43.627Z,64.11
2022-09-15T17:32:01.505Z,63.79
2022-09-15T17:36:18.867Z,63.19
2022-09-15T17:40:35.843Z,63.86
2022-09-15T17:44:52.770Z,63.02
2022-09-15T17:49:09.454Z,63.51
2022-09-15T17:53:28.731Z,63.16
2022-09-15T17:57:45.160Z,62.83
2022-09-15T18:02:01.183Z,63.20
2022-09-15T18:09:01.314Z,62.91
2022-09-15T18:13:21.902Z,62.76
2022-09-15T18:17:38.625Z,63.47
2022-09-15T18:21:54.730Z,64.42
2022-09-15T18:26:11.094Z,63.81
2022-09-15T18:30:31.179Z,64.05
2022-09-15T18:34:47.921Z,63.44
2022-09-15T18:39:05.225Z,63.51
2022-09-15T18:43:22.717Z,64.18
2022-09-15T18:47:38.798Z,64.13
2022-09-15T18:51:54.936Z,64.32
2022-09-15T18:56:15.509Z,64.29
2022-09-15T19:00:31.927Z,64.42
2022-09-15T19:04:47.911Z,64.47
2022-09-15T19:09:04.050Z,65.33
2022-09-15T19:13:19.956Z,65.68
2022-09-15T19:17:36.216Z,65.82
2022-09-15T19:21:52.193Z,65.81
2022-09-15T19:26:17.912Z,65.93
2022-09-15T19:30:34.986Z,66.22
2022-09-15T19:34:51.193Z,65.66
2022-09-15T19:39:07.318Z,65.70
2022-09-15T19:43:23.224Z,65.93
2022-09-15T19:47:39.867Z,66.33
2022-09-15T19:51:56.057Z,65.28
2022-09-15T19:56:22.310Z,66.02
2022-09-15T20:00:38.594Z,66.78
2022-09-15T20:04:55.199Z,67.25
2022-09-15T20:09:11.455Z,67.36
2022-09-15T20:13:27.384Z,66.98
2022-09-15T20:17:43.426Z,68.71
2022-09-15T20:21:59.343Z,67.85
2022-09-15T20:26:16.698Z,67.15
2022-09-15T20:30:32.640Z,68.69
2022-09-15T20:34:51.004Z,69.18
2022-09-15T20:39:10.936Z,69.67
2022-09-15T20:43:27.484Z,69.70
2022-09-15T20:47:43.367Z,69.81
2022-09-15T20:51:59.533Z,70.02
2022-09-15T20:56:20.209Z,70.40
2022-09-15T21:00:39.123Z,68.82
2022-09-15T21:04:55.534Z,70.44
2022-09-15T21:09:11.560Z,69.95
2022-09-15T21:13:33.656Z,69.34
2022-09-15T21:17:49.952Z,69.65
2022-09-15T21:22:06.255Z,69.58
2022-09-15T21:26:27.114Z,69.95
2022-09-15T21:30:43.110Z,70.76
2022-09-15T21:35:00.220Z,70.55
2022-09-15T21:39:16.185Z,71.15
2022-09-15T21:43:35.294Z,69.37
2022-09-15T21:47:51.159Z,68.39
2022-09-15T21:52:07.113Z,69.12
2022-09-15T21:56:23.559Z,68.35
2022-09-15T22:00:40.440Z,69.43
2022-09-15T22:04:56.989Z,70.08
2022-09-15T22:09:18.319Z,69.88
2022-09-15T22:13:36.518Z,70.47
2022-09-15T22:17:52.519Z,69.51
2022-09-15T22:22:08.968Z,69.79
2022-09-15T22:26:27.663Z,69.94
2022-09-15T22:30:43.679Z,68.98
2022-09-15T22:34:59.577Z,69.53
2022-09-15T22:39:15.564Z,69.29
2022-09-15T22:43:31.542Z,69.40
2022-09-15T22:47:47.411Z,68.06
2022-09-15T22:52:03.490Z,67.98
2022-09-15T22:56:23.309Z,67.24
2022-09-15T23:00:39.678Z,66.94
2022-09-15T23:04:55.698Z,66.42
2022-09-15T23:09:12.282Z,67.52
2022-09-15T23:13:28.247Z,67.39
2022-09-15T23:17:44.218Z,66.63
2022-09-15T23:22:00.170Z,66.73
2022-09-15T23:26:18.525Z,66.35
2022-09-15T23:30:34.601Z,66.11
2022-09-15T23:34:50.688Z,66.55
2022-09-15T23:39:06.858Z,66.61
2022-09-15T23:43:23.235Z,67.35
2022-09-15T23:47:39.143Z,68.61
2022-09-15T23:51:55.118Z,68.03
2022-09-15T23:56:11.138Z,68.76
